sensor_id;sensor_type;location;lat;lon;timestamp;temperature;humidity
79491;SHT31;73788;53.048;18.472;2023-12-20T00:00:37;6.89;86.00
79491;SHT31;73788;53.048;18.472;2023-12-20T00:03:24;6.89;86.01
79491;SHT31;73788;53.048;18.472;2023-12-20T00:05:51;6.85;86.00
79491;SHT31;73788;53.048;18.472;2023-12-20T00:08:18;6.84;86.00
79491;SHT31;73788;53.048;18.472;2023-12-20T00:10:46;6.86;86.01
79491;SHT31;73788;53.048;18.472;2023-12-20T00:13:13;6.88;86.01
79491;SHT31;73788;53.048;18.472;2023-12-20T00:15:40;6.89;86.03
79491;SHT31;73788;53.048;18.472;2023-12-20T00:18:07;6.87;86.04
79491;SHT31;73788;53.048;18.472;2023-12-20T00:20:34;6.87;86.05
79491;SHT31;73788;53.048;18.472;2023-12-20T00:23:01;6.85;86.09
79491;SHT31;73788;53.048;18.472;2023-12-20T00:25:29;6.85;86.09
79491;SHT31;73788;53.048;18.472;2023-12-20T00:27:56;6.86;86.09
79491;SHT31;73788;53.048;18.472;2023-12-20T00:30:23;6.86;86.10
79491;SHT31;73788;53.048;18.472;2023-12-20T00:32:51;6.88;86.10
79491;SHT31;73788;53.048;18.472;2023-12-20T00:35:18;6.89;86.10
79491;SHT31;73788;53.048;18.472;2023-12-20T00:37:45;6.93;86.10
79491;SHT31;73788;53.048;18.472;2023-12-20T00:40:12;6.94;86.10
79491;SHT31;73788;53.048;18.472;2023-12-20T00:42:39;6.93;86.10
79491;SHT31;73788;53.048;18.472;2023-12-20T00:45:06;6.91;86.10
79491;SHT31;73788;53.048;18.472;2023-12-20T00:47:34;6.90;86.10
79491;SHT31;73788;53.048;18.472;2023-12-20T00:50:01;6.92;86.10
79491;SHT31;73788;53.048;18.472;2023-12-20T00:52:29;6.92;86.10
79491;SHT31;73788;53.048;18.472;2023-12-20T00:54:57;6.93;86.10
79491;SHT31;73788;53.048;18.472;2023-12-20T00:57:24;6.98;86.12
79491;SHT31;73788;53.048;18.472;2023-12-20T00:59:52;7.01;86.12
79491;SHT31;73788;53.048;18.472;2023-12-20T01:02:19;6.96;86.16
79491;SHT31;73788;53.048;18.472;2023-12-20T01:04:46;6.95;86.14
79491;SHT31;73788;53.048;18.472;2023-12-20T01:07:13;6.96;86.18
79491;SHT31;73788;53.048;18.472;2023-12-20T01:09:40;6.97;86.19
79491;SHT31;73788;53.048;18.472;2023-12-20T01:12:07;6.98;86.17
79491;SHT31;73788;53.048;18.472;2023-12-20T01:14:34;6.98;86.20
79491;SHT31;73788;53.048;18.472;2023-12-20T01:17:01;6.97;86.20
79491;SHT31;73788;53.048;18.472;2023-12-20T01:19:28;6.97;86.20
79491;SHT31;73788;53.048;18.472;2023-12-20T01:21:56;6.97;86.19
79491;SHT31;73788;53.048;18.472;2023-12-20T01:24:23;6.97;86.20
79491;SHT31;73788;53.048;18.472;2023-12-20T01:26:50;6.97;86.20
79491;SHT31;73788;53.048;18.472;2023-12-20T01:29:17;6.97;86.20
79491;SHT31;73788;53.048;18.472;2023-12-20T01:31:44;7.00;86.20
79491;SHT31;73788;53.048;18.472;2023-12-20T01:34:12;7.00;86.21
79491;SHT31;73788;53.048;18.472;2023-12-20T01:36:39;7.02;86.20
79491;SHT31;73788;53.048;18.472;2023-12-20T01:39:06;7.01;86.21
79491;SHT31;73788;53.048;18.472;2023-12-20T01:41:33;7.03;86.21
79491;SHT31;73788;53.048;18.472;2023-12-20T01:44:00;7.05;86.24
79491;SHT31;73788;53.048;18.472;2023-12-20T01:46:27;7.06;86.23
79491;SHT31;73788;53.048;18.472;2023-12-20T01:48:55;7.05;86.23
79491;SHT31;73788;53.048;18.472;2023-12-20T01:51:22;7.05;86.26
79491;SHT31;73788;53.048;18.472;2023-12-20T01:53:49;7.05;86.26
79491;SHT31;73788;53.048;18.472;2023-12-20T01:56:16;7.04;86.27
79491;SHT31;73788;53.048;18.472;2023-12-20T01:58:44;7.01;86.30
79491;SHT31;73788;53.048;18.472;2023-12-20T02:01:13;7.01;86.29
79491;SHT31;73788;53.048;18.472;2023-12-20T02:03:41;7.07;86.27
79491;SHT31;73788;53.048;18.472;2023-12-20T02:06:09;7.09;86.29
79491;SHT31;73788;53.048;18.472;2023-12-20T02:08:36;7.07;86.29
79491;SHT31;73788;53.048;18.472;2023-12-20T02:11:03;7.08;86.30
79491;SHT31;73788;53.048;18.472;2023-12-20T02:13:31;7.12;86.30
79491;SHT31;73788;53.048;18.472;2023-12-20T02:15:59;7.12;86.30
79491;SHT31;73788;53.048;18.472;2023-12-20T02:18:27;7.07;86.30
79491;SHT31;73788;53.048;18.472;2023-12-20T02:20:54;7.05;86.30
79491;SHT31;73788;53.048;18.472;2023-12-20T02:23:22;7.06;86.30
79491;SHT31;73788;53.048;18.472;2023-12-20T02:25:49;7.08;86.30
79491;SHT31;73788;53.048;18.472;2023-12-20T02:28:16;7.09;86.30
79491;SHT31;73788;53.048;18.472;2023-12-20T02:30:43;7.09;86.31
79491;SHT31;73788;53.048;18.472;2023-12-20T02:33:10;7.10;86.31
79491;SHT31;73788;53.048;18.472;2023-12-20T02:35:40;7.14;86.33
79491;SHT31;73788;53.048;18.472;2023-12-20T02:38:07;7.15;86.31
79491;SHT31;73788;53.048;18.472;2023-12-20T02:40:34;7.13;86.34
79491;SHT31;73788;53.048;18.472;2023-12-20T02:43:02;7.08;86.38
79491;SHT31;73788;53.048;18.472;2023-12-20T02:45:29;7.08;86.37
79491;SHT31;73788;53.048;18.472;2023-12-20T02:47:56;7.10;86.36
79491;SHT31;73788;53.048;18.472;2023-12-20T02:50:23;7.09;86.38
79491;SHT31;73788;53.048;18.472;2023-12-20T02:52:51;7.07;86.37
79491;SHT31;73788;53.048;18.472;2023-12-20T02:55:18;7.09;86.40
79491;SHT31;73788;53.048;18.472;2023-12-20T02:57:45;7.11;86.40
79491;SHT31;73788;53.048;18.472;2023-12-20T03:00:12;7.11;86.40
79491;SHT31;73788;53.048;18.472;2023-12-20T03:02:40;7.09;86.40
79491;SHT31;73788;53.048;18.472;2023-12-20T03:05:07;7.10;86.40
79491;SHT31;73788;53.048;18.472;2023-12-20T03:07:36;7.13;86.40
79491;SHT31;73788;53.048;18.472;2023-12-20T03:10:04;7.15;86.40
79491;SHT31;73788;53.048;18.472;2023-12-20T03:12:34;7.14;86.40
79491;SHT31;73788;53.048;18.472;2023-12-20T03:15:01;7.11;86.40
79491;SHT31;73788;53.048;18.472;2023-12-20T03:17:28;7.11;86.40
79491;SHT31;73788;53.048;18.472;2023-12-20T03:19:55;7.10;86.40
79491;SHT31;73788;53.048;18.472;2023-12-20T03:22:22;7.08;86.40
79491;SHT31;73788;53.048;18.472;2023-12-20T03:24:49;7.08;86.42
79491;SHT31;73788;53.048;18.472;2023-12-20T03:27:16;7.10;86.40
79491;SHT31;73788;53.048;18.472;2023-12-20T03:29:43;7.09;86.42
79491;SHT31;73788;53.048;18.472;2023-12-20T03:32:10;7.09;86.43
79491;SHT31;73788;53.048;18.472;2023-12-20T03:34:37;7.05;86.45
79491;SHT31;73788;53.048;18.472;2023-12-20T03:37:05;7.05;86.44
79491;SHT31;73788;53.048;18.472;2023-12-20T03:39:32;7.06;86.46
79491;SHT31;73788;53.048;18.472;2023-12-20T03:41:59;7.05;86.47
79491;SHT31;73788;53.048;18.472;2023-12-20T03:44:26;7.04;86.46
79491;SHT31;73788;53.048;18.472;2023-12-20T03:46:53;7.07;86.48
79491;SHT31;73788;53.048;18.472;2023-12-20T03:49:20;7.08;86.49
79491;SHT31;73788;53.048;18.472;2023-12-20T03:51:47;7.08;86.50
79491;SHT31;73788;53.048;18.472;2023-12-20T03:54:14;7.10;86.49
79491;SHT31;73788;53.048;18.472;2023-12-20T03:56:41;7.07;86.50
79491;SHT31;73788;53.048;18.472;2023-12-20T03:59:08;7.07;86.50
79491;SHT31;73788;53.048;18.472;2023-12-20T04:01:35;7.07;86.50
79491;SHT31;73788;53.048;18.472;2023-12-20T04:04:06;7.07;86.50
79491;SHT31;73788;53.048;18.472;2023-12-20T04:06:33;7.08;86.50
79491;SHT31;73788;53.048;18.472;2023-12-20T04:09:00;7.08;86.50
79491;SHT31;73788;53.048;18.472;2023-12-20T04:11:27;7.08;86.50
79491;SHT31;73788;53.048;18.472;2023-12-20T04:13:54;7.08;86.50
79491;SHT31;73788;53.048;18.472;2023-12-20T04:16:21;7.08;86.50
79491;SHT31;73788;53.048;18.472;2023-12-20T04:18:48;7.09;86.50
79491;SHT31;73788;53.048;18.472;2023-12-20T04:21:16;7.09;86.51
79491;SHT31;73788;53.048;18.472;2023-12-20T04:23:43;7.08;86.50
79491;SHT31;73788;53.048;18.472;2023-12-20T04:26:10;7.08;86.51
79491;SHT31;73788;53.048;18.472;2023-12-20T04:28:37;7.09;86.50
79491;SHT31;73788;53.048;18.472;2023-12-20T04:31:04;7.09;86.52
79491;SHT31;73788;53.048;18.472;2023-12-20T04:33:31;7.08;86.51
79491;SHT31;73788;53.048;18.472;2023-12-20T04:35:58;7.08;86.52
79491;SHT31;73788;53.048;18.472;2023-12-20T04:38:26;7.06;86.52
79491;SHT31;73788;53.048;18.472;2023-12-20T04:40:53;7.06;86.56
79491;SHT31;73788;53.048;18.472;2023-12-20T04:43:20;7.07;86.55
79491;SHT31;73788;53.048;18.472;2023-12-20T04:45:48;7.07;86.56
79491;SHT31;73788;53.048;18.472;2023-12-20T04:48:15;7.07;86.57
79491;SHT31;73788;53.048;18.472;2023-12-20T04:50:42;7.07;86.58
79491;SHT31;73788;53.048;18.472;2023-12-20T04:53:09;7.08;86.60
79491;SHT31;73788;53.048;18.472;2023-12-20T04:55:36;7.08;86.60
79491;SHT31;73788;53.048;18.472;2023-12-20T04:58:03;7.07;86.58
79491;SHT31;73788;53.048;18.472;2023-12-20T05:00:30;7.04;86.60
79491;SHT31;73788;53.048;18.472;2023-12-20T05:02:57;7.03;86.60
79491;SHT31;73788;53.048;18.472;2023-12-20T05:05:26;7.03;86.60
79491;SHT31;73788;53.048;18.472;2023-12-20T05:07:55;7.03;86.60
79491;SHT31;73788;53.048;18.472;2023-12-20T05:10:22;7.02;86.60
79491;SHT31;73788;53.048;18.472;2023-12-20T05:12:49;7.00;86.60
79491;SHT31;73788;53.048;18.472;2023-12-20T05:15:17;6.98;86.60
79491;SHT31;73788;53.048;18.472;2023-12-20T05:17:44;6.96;86.59
79491;SHT31;73788;53.048;18.472;2023-12-20T05:20:11;6.94;86.60
79491;SHT31;73788;53.048;18.472;2023-12-20T05:22:39;6.89;86.60
79491;SHT31;73788;53.048;18.472;2023-12-20T05:25:07;6.85;86.60
79491;SHT31;73788;53.048;18.472;2023-12-20T05:27:34;6.85;86.60
79491;SHT31;73788;53.048;18.472;2023-12-20T05:30:02;6.84;86.60
79491;SHT31;73788;53.048;18.472;2023-12-20T05:32:31;6.82;86.60
79491;SHT31;73788;53.048;18.472;2023-12-20T05:34:58;6.80;86.60
79491;SHT31;73788;53.048;18.472;2023-12-20T05:37:25;6.78;86.60
79491;SHT31;73788;53.048;18.472;2023-12-20T05:39:52;6.75;86.60
79491;SHT31;73788;53.048;18.472;2023-12-20T05:42:19;6.72;86.60
79491;SHT31;73788;53.048;18.472;2023-12-20T05:44:46;6.70;86.60
79491;SHT31;73788;53.048;18.472;2023-12-20T05:47:13;6.66;86.60
79491;SHT31;73788;53.048;18.472;2023-12-20T05:49:41;6.65;86.60
79491;SHT31;73788;53.048;18.472;2023-12-20T05:52:08;6.61;86.61
79491;SHT31;73788;53.048;18.472;2023-12-20T05:54:35;6.58;86.60
79491;SHT31;73788;53.048;18.472;2023-12-20T05:57:02;6.55;86.60
79491;SHT31;73788;53.048;18.472;2023-12-20T05:59:30;6.55;86.60
79491;SHT31;73788;53.048;18.472;2023-12-20T06:01:57;6.53;86.61
79491;SHT31;73788;53.048;18.472;2023-12-20T06:04:24;6.51;86.60
79491;SHT31;73788;53.048;18.472;2023-12-20T06:06:51;6.50;86.61
79491;SHT31;73788;53.048;18.472;2023-12-20T06:09:18;6.47;86.60
79491;SHT31;73788;53.048;18.472;2023-12-20T06:11:46;6.43;86.61
79491;SHT31;73788;53.048;18.472;2023-12-20T06:14:13;6.41;86.60
79491;SHT31;73788;53.048;18.472;2023-12-20T06:16:40;6.39;86.60
79491;SHT31;73788;53.048;18.472;2023-12-20T06:19:07;6.37;86.60
79491;SHT31;73788;53.048;18.472;2023-12-20T06:21:34;6.36;86.61
79491;SHT31;73788;53.048;18.472;2023-12-20T06:24:01;6.34;86.60
79491;SHT31;73788;53.048;18.472;2023-12-20T06:26:28;6.33;86.60
79491;SHT31;73788;53.048;18.472;2023-12-20T06:28:55;6.31;86.60
79491;SHT31;73788;53.048;18.472;2023-12-20T06:31:22;6.27;86.61
79491;SHT31;73788;53.048;18.472;2023-12-20T06:33:49;6.20;86.60
79491;SHT31;73788;53.048;18.472;2023-12-20T06:36:23;6.14;86.61
79491;SHT31;73788;53.048;18.472;2023-12-20T06:38:51;6.09;86.60
79491;SHT31;73788;53.048;18.472;2023-12-20T06:41:18;6.08;86.60
79491;SHT31;73788;53.048;18.472;2023-12-20T06:43:45;6.10;86.60
79491;SHT31;73788;53.048;18.472;2023-12-20T06:46:13;6.12;86.61
79491;SHT31;73788;53.048;18.472;2023-12-20T06:48:40;6.13;86.61
79491;SHT31;73788;53.048;18.472;2023-12-20T06:51:10;6.10;86.60
79491;SHT31;73788;53.048;18.472;2023-12-20T06:53:40;6.03;86.60
79491;SHT31;73788;53.048;18.472;2023-12-20T06:56:09;5.96;86.60
79491;SHT31;73788;53.048;18.472;2023-12-20T06:58:38;5.88;86.60
79491;SHT31;73788;53.048;18.472;2023-12-20T07:01:05;5.80;86.60
79491;SHT31;73788;53.048;18.472;2023-12-20T07:03:37;5.74;86.60
79491;SHT31;73788;53.048;18.472;2023-12-20T07:06:04;5.69;86.60
79491;SHT31;73788;53.048;18.472;2023-12-20T07:08:31;5.64;86.60
79491;SHT31;73788;53.048;18.472;2023-12-20T07:10:58;5.57;86.60
79491;SHT31;73788;53.048;18.472;2023-12-20T07:13:25;5.49;86.60
79491;SHT31;73788;53.048;18.472;2023-12-20T07:15:52;5.42;86.60
79491;SHT31;73788;53.048;18.472;2023-12-20T07:18:19;5.34;86.59
79491;SHT31;73788;53.048;18.472;2023-12-20T07:20:46;5.29;86.58
79491;SHT31;73788;53.048;18.472;2023-12-20T07:23:14;5.24;86.59
79491;SHT31;73788;53.048;18.472;2023-12-20T07:25:41;5.21;86.58
79491;SHT31;73788;53.048;18.472;2023-12-20T07:28:08;5.17;86.58
79491;SHT31;73788;53.048;18.472;2023-12-20T07:30:36;5.13;86.58
79491;SHT31;73788;53.048;18.472;2023-12-20T07:33:04;5.11;86.57
79491;SHT31;73788;53.048;18.472;2023-12-20T07:35:31;5.10;86.60
79491;SHT31;73788;53.048;18.472;2023-12-20T07:37:58;5.12;86.57
79491;SHT31;73788;53.048;18.472;2023-12-20T07:40:25;5.13;86.58
79491;SHT31;73788;53.048;18.472;2023-12-20T07:42:52;5.11;86.59
79491;SHT31;73788;53.048;18.472;2023-12-20T07:45:19;5.13;86.58
79491;SHT31;73788;53.048;18.472;2023-12-20T07:47:46;5.16;86.59
79491;SHT31;73788;53.048;18.472;2023-12-20T07:50:13;5.20;86.60
79491;SHT31;73788;53.048;18.472;2023-12-20T07:52:40;5.22;86.60
79491;SHT31;73788;53.048;18.472;2023-12-20T07:55:08;5.28;86.60
79491;SHT31;73788;53.048;18.472;2023-12-20T07:57:35;5.36;86.60
79491;SHT31;73788;53.048;18.472;2023-12-20T08:00:02;5.44;86.60
79491;SHT31;73788;53.048;18.472;2023-12-20T08:02:30;5.53;86.60
79491;SHT31;73788;53.048;18.472;2023-12-20T08:04:57;5.59;86.60
79491;SHT31;73788;53.048;18.472;2023-12-20T08:07:24;5.65;86.60
79491;SHT31;73788;53.048;18.472;2023-12-20T08:09:51;5.72;86.64
79491;SHT31;73788;53.048;18.472;2023-12-20T08:12:19;5.80;86.63
79491;SHT31;73788;53.048;18.472;2023-12-20T08:14:46;5.87;86.66
79491;SHT31;73788;53.048;18.472;2023-12-20T08:17:13;5.93;86.70
79491;SHT31;73788;53.048;18.472;2023-12-20T08:19:42;5.99;86.68
79491;SHT31;73788;53.048;18.472;2023-12-20T08:22:09;6.05;86.70
79491;SHT31;73788;53.048;18.472;2023-12-20T08:24:37;6.11;86.69
79491;SHT31;73788;53.048;18.472;2023-12-20T08:27:04;6.20;86.70
79491;SHT31;73788;53.048;18.472;2023-12-20T08:29:31;6.27;86.70
79491;SHT31;73788;53.048;18.472;2023-12-20T08:31:58;6.43;86.70
79491;SHT31;73788;53.048;18.472;2023-12-20T08:34:26;6.63;86.70
79491;SHT31;73788;53.048;18.472;2023-12-20T08:36:53;6.86;86.75
79491;SHT31;73788;53.048;18.472;2023-12-20T08:39:20;7.00;86.76
79491;SHT31;73788;53.048;18.472;2023-12-20T08:41:47;7.02;86.77
79491;SHT31;73788;53.048;18.472;2023-12-20T08:44:14;7.07;86.78
79491;SHT31;73788;53.048;18.472;2023-12-20T08:46:41;7.25;86.78
79491;SHT31;73788;53.048;18.472;2023-12-20T08:49:09;7.54;86.80
79491;SHT31;73788;53.048;18.472;2023-12-20T08:51:36;7.88;86.81
79491;SHT31;73788;53.048;18.472;2023-12-20T08:54:06;8.29;86.85
79491;SHT31;73788;53.048;18.472;2023-12-20T08:56:36;8.73;86.90
79491;SHT31;73788;53.048;18.472;2023-12-20T08:59:03;8.97;86.90
79491;SHT31;73788;53.048;18.472;2023-12-20T09:01:30;8.93;86.88
79491;SHT31;73788;53.048;18.472;2023-12-20T09:03:58;8.71;86.87
79491;SHT31;73788;53.048;18.472;2023-12-20T09:06:25;8.37;86.81
79491;SHT31;73788;53.048;18.472;2023-12-20T09:08:52;8.11;86.82
79491;SHT31;73788;53.048;18.472;2023-12-20T09:11:19;7.94;86.80
79491;SHT31;73788;53.048;18.472;2023-12-20T09:13:47;7.69;86.80
79491;SHT31;73788;53.048;18.472;2023-12-20T09:16:14;7.50;86.79
79491;SHT31;73788;53.048;18.472;2023-12-20T09:18:42;7.40;86.80
79491;SHT31;73788;53.048;18.472;2023-12-20T09:21:09;7.47;86.80
79491;SHT31;73788;53.048;18.472;2023-12-20T09:23:36;7.50;86.78
79491;SHT31;73788;53.048;18.472;2023-12-20T09:26:03;7.34;86.79
79491;SHT31;73788;53.048;18.472;2023-12-20T09:28:31;7.12;86.75
79491;SHT31;73788;53.048;18.472;2023-12-20T09:31:03;6.95;86.75
79491;SHT31;73788;53.048;18.472;2023-12-20T09:33:33;6.85;86.72
79491;SHT31;73788;53.048;18.472;2023-12-20T09:36:01;6.78;86.70
79491;SHT31;73788;53.048;18.472;2023-12-20T09:38:29;6.71;86.71
79491;SHT31;73788;53.048;18.472;2023-12-20T09:40:56;6.63;86.70
79491;SHT31;73788;53.048;18.472;2023-12-20T09:43:23;6.57;86.70
79491;SHT31;73788;53.048;18.472;2023-12-20T09:45:56;6.56;86.70
79491;SHT31;73788;53.048;18.472;2023-12-20T09:48:28;6.57;86.70
79491;SHT31;73788;53.048;18.472;2023-12-20T09:50:57;6.58;86.70
79491;SHT31;73788;53.048;18.472;2023-12-20T09:53:24;6.95;86.70
79491;SHT31;73788;53.048;18.472;2023-12-20T09:55:58;7.59;86.74
79491;SHT31;73788;53.048;18.472;2023-12-20T09:58:26;8.31;86.80
79491;SHT31;73788;53.048;18.472;2023-12-20T10:00:54;8.60;86.80
79491;SHT31;73788;53.048;18.472;2023-12-20T10:03:24;8.80;86.80
79491;SHT31;73788;53.048;18.472;2023-12-20T10:05:54;8.99;86.80
79491;SHT31;73788;53.048;18.472;2023-12-20T10:08:24;8.91;86.78
79491;SHT31;73788;53.048;18.472;2023-12-20T10:10:52;8.85;86.79
79491;SHT31;73788;53.048;18.472;2023-12-20T10:13:19;8.81;86.79
79491;SHT31;73788;53.048;18.472;2023-12-20T10:15:46;8.81;86.74
79491;SHT31;73788;53.048;18.472;2023-12-20T10:18:13;9.14;86.79
79491;SHT31;73788;53.048;18.472;2023-12-20T10:20:42;9.73;86.80
79491;SHT31;73788;53.048;18.472;2023-12-20T10:23:11;10.22;86.80
79491;SHT31;73788;53.048;18.472;2023-12-20T10:25:40;10.18;86.74
79491;SHT31;73788;53.048;18.472;2023-12-20T10:28:15;9.80;86.69
79491;SHT31;73788;53.048;18.472;2023-12-20T10:30:49;9.26;86.67
79491;SHT31;73788;53.048;18.472;2023-12-20T10:33:26;9.20;86.67
79491;SHT31;73788;53.048;18.472;2023-12-20T10:35:55;9.46;86.65
79491;SHT31;73788;53.048;18.472;2023-12-20T10:38:24;9.82;86.64
79491;SHT31;73788;53.048;18.472;2023-12-20T10:40:53;10.35;86.66
79491;SHT31;73788;53.048;18.472;2023-12-20T10:43:27;10.70;86.64
79491;SHT31;73788;53.048;18.472;2023-12-20T10:45:57;10.86;86.61
79491;SHT31;73788;53.048;18.472;2023-12-20T10:48:25;10.68;86.60
79491;SHT31;73788;53.048;18.472;2023-12-20T10:50:56;10.63;86.58
79491;SHT31;73788;53.048;18.472;2023-12-20T10:53:24;10.45;86.51
79491;SHT31;73788;53.048;18.472;2023-12-20T10:55:52;9.94;86.48
79491;SHT31;73788;53.048;18.472;2023-12-20T10:58:26;9.51;86.41
79491;SHT31;73788;53.048;18.472;2023-12-20T11:00:59;9.14;86.39
79491;SHT31;73788;53.048;18.472;2023-12-20T11:03:32;8.81;86.31
79491;SHT31;73788;53.048;18.472;2023-12-20T11:17:22;7.74;86.10
79491;SHT31;73788;53.048;18.472;2023-12-20T11:22:32;7.60;86.00
79491;SHT31;73788;53.048;18.472;2023-12-20T11:25:05;7.53;85.98
79491;SHT31;73788;53.048;18.472;2023-12-20T11:27:36;7.46;85.94
79491;SHT31;73788;53.048;18.472;2023-12-20T11:30:09;7.39;85.90
79491;SHT31;73788;53.048;18.472;2023-12-20T11:32:37;7.32;85.87
79491;SHT31;73788;53.048;18.472;2023-12-20T11:37:37;7.13;85.80
79491;SHT31;73788;53.048;18.472;2023-12-20T11:40:12;7.08;85.74
79491;SHT31;73788;53.048;18.472;2023-12-20T11:42:49;7.00;85.70
79491;SHT31;73788;53.048;18.472;2023-12-20T11:45:18;6.97;85.70
79491;SHT31;73788;53.048;18.472;2023-12-20T11:47:48;6.93;85.63
79491;SHT31;73788;53.048;18.472;2023-12-20T11:50:17;6.92;85.60
79491;SHT31;73788;53.048;18.472;2023-12-20T11:52:45;6.94;85.59
79491;SHT31;73788;53.048;18.472;2023-12-20T11:55:12;6.95;85.55
79491;SHT31;73788;53.048;18.472;2023-12-20T11:57:40;6.99;85.51
79491;SHT31;73788;53.048;18.472;2023-12-20T12:00:08;7.00;85.50
79491;SHT31;73788;53.048;18.472;2023-12-20T12:02:36;6.99;85.48
79491;SHT31;73788;53.048;18.472;2023-12-20T12:05:03;7.05;85.42
79491;SHT31;73788;53.048;18.472;2023-12-20T12:07:34;7.07;85.40
79491;SHT31;73788;53.048;18.472;2023-12-20T12:10:02;7.09;85.40
79491;SHT31;73788;53.048;18.472;2023-12-20T12:12:30;7.08;85.37
79491;SHT31;73788;53.048;18.472;2023-12-20T12:14:57;7.09;85.31
79491;SHT31;73788;53.048;18.472;2023-12-20T12:17:24;7.10;85.28
79491;SHT31;73788;53.048;18.472;2023-12-20T12:19:52;7.05;85.23
79491;SHT31;73788;53.048;18.472;2023-12-20T12:22:32;7.01;85.21
79491;SHT31;73788;53.048;18.472;2023-12-20T12:24:59;6.91;85.19
79491;SHT31;73788;53.048;18.472;2023-12-20T12:27:39;6.85;85.15
79491;SHT31;73788;53.048;18.472;2023-12-20T12:30:08;6.78;85.09
79491;SHT31;73788;53.048;18.472;2023-12-20T12:32:36;6.71;85.07
79491;SHT31;73788;53.048;18.472;2023-12-20T12:35:04;6.67;85.04
79491;SHT31;73788;53.048;18.472;2023-12-20T12:37:35;6.59;85.00
79491;SHT31;73788;53.048;18.472;2023-12-20T12:40:12;6.57;84.99
79491;SHT31;73788;53.048;18.472;2023-12-20T12:42:41;6.56;84.95
79491;SHT31;73788;53.048;18.472;2023-12-20T12:45:10;6.54;84.90
79491;SHT31;73788;53.048;18.472;2023-12-20T12:47:38;6.59;84.91
79491;SHT31;73788;53.048;18.472;2023-12-20T12:50:05;6.61;84.89
79491;SHT31;73788;53.048;18.472;2023-12-20T12:52:33;6.55;84.85
79491;SHT31;73788;53.048;18.472;2023-12-20T12:55:01;6.48;84.81
79491;SHT31;73788;53.048;18.472;2023-12-20T12:57:30;6.43;84.81
79491;SHT31;73788;53.048;18.472;2023-12-20T12:59:57;6.40;84.80
79491;SHT31;73788;53.048;18.472;2023-12-20T13:02:25;6.38;84.74
79491;SHT31;73788;53.048;18.472;2023-12-20T13:04:52;6.36;84.71
79491;SHT31;73788;53.048;18.472;2023-12-20T13:07:19;6.38;84.71
79491;SHT31;73788;53.048;18.472;2023-12-20T13:09:47;6.36;84.70
79491;SHT31;73788;53.048;18.472;2023-12-20T13:12:14;6.33;84.68
79491;SHT31;73788;53.048;18.472;2023-12-20T13:14:41;6.31;84.62
79491;SHT31;73788;53.048;18.472;2023-12-20T13:17:08;6.28;84.60
79491;SHT31;73788;53.048;18.472;2023-12-20T13:19:35;6.28;84.60
79491;SHT31;73788;53.048;18.472;2023-12-20T13:22:02;6.27;84.60
79491;SHT31;73788;53.048;18.472;2023-12-20T13:24:30;6.26;84.59
79491;SHT31;73788;53.048;18.472;2023-12-20T13:26:58;6.22;84.59
79491;SHT31;73788;53.048;18.472;2023-12-20T13:29:25;6.20;84.58
79491;SHT31;73788;53.048;18.472;2023-12-20T13:31:53;6.17;84.50
79491;SHT31;73788;53.048;18.472;2023-12-20T13:34:20;6.13;84.50
79491;SHT31;73788;53.048;18.472;2023-12-20T13:36:48;6.10;84.50
79491;SHT31;73788;53.048;18.472;2023-12-20T13:39:17;6.07;84.50
79491;SHT31;73788;53.048;18.472;2023-12-20T13:41:44;6.01;84.48
79491;SHT31;73788;53.048;18.472;2023-12-20T13:44:11;5.98;84.45
79491;SHT31;73788;53.048;18.472;2023-12-20T13:46:39;5.92;84.42
79491;SHT31;73788;53.048;18.472;2023-12-20T13:49:08;5.88;84.40
79491;SHT31;73788;53.048;18.472;2023-12-20T13:51:35;5.85;84.40
79491;SHT31;73788;53.048;18.472;2023-12-20T13:54:02;5.82;84.40
79491;SHT31;73788;53.048;18.472;2023-12-20T13:56:29;5.81;84.40
79491;SHT31;73788;53.048;18.472;2023-12-20T13:58:56;5.80;84.40
79491;SHT31;73788;53.048;18.472;2023-12-20T14:01:23;5.80;84.39
79491;SHT31;73788;53.048;18.472;2023-12-20T14:03:50;5.80;84.40
79491;SHT31;73788;53.048;18.472;2023-12-20T14:06:17;5.79;84.39
79491;SHT31;73788;53.048;18.472;2023-12-20T14:08:44;5.78;84.36
79491;SHT31;73788;53.048;18.472;2023-12-20T14:11:12;5.78;84.33
79491;SHT31;73788;53.048;18.472;2023-12-20T14:13:40;5.78;84.31
79491;SHT31;73788;53.048;18.472;2023-12-20T14:16:07;5.78;84.32
79491;SHT31;73788;53.048;18.472;2023-12-20T14:18:34;5.77;84.32
79491;SHT31;73788;53.048;18.472;2023-12-20T14:21:01;5.77;84.32
79491;SHT31;73788;53.048;18.472;2023-12-20T14:23:28;5.78;84.32
79491;SHT31;73788;53.048;18.472;2023-12-20T14:25:55;5.78;84.30
79491;SHT31;73788;53.048;18.472;2023-12-20T14:28:25;5.77;84.30
79491;SHT31;73788;53.048;18.472;2023-12-20T14:30:52;5.77;84.30
79491;SHT31;73788;53.048;18.472;2023-12-20T14:33:19;5.77;84.30
79491;SHT31;73788;53.048;18.472;2023-12-20T14:35:48;5.76;84.30
79491;SHT31;73788;53.048;18.472;2023-12-20T14:38:15;5.79;84.30
79491;SHT31;73788;53.048;18.472;2023-12-20T14:40:42;5.80;84.30
79491;SHT31;73788;53.048;18.472;2023-12-20T14:43:09;5.81;84.30
79491;SHT31;73788;53.048;18.472;2023-12-20T14:45:37;5.81;84.30
79491;SHT31;73788;53.048;18.472;2023-12-20T14:48:04;5.79;84.29
79491;SHT31;73788;53.048;18.472;2023-12-20T14:50:32;5.81;84.30
79491;SHT31;73788;53.048;18.472;2023-12-20T14:52:59;5.80;84.30
79491;SHT31;73788;53.048;18.472;2023-12-20T14:55:26;5.79;84.28
79491;SHT31;73788;53.048;18.472;2023-12-20T14:57:55;5.78;84.27
79491;SHT31;73788;53.048;18.472;2023-12-20T15:00:22;5.79;84.25
79491;SHT31;73788;53.048;18.472;2023-12-20T15:02:54;5.79;84.26
79491;SHT31;73788;53.048;18.472;2023-12-20T15:05:21;5.79;84.24
79491;SHT31;73788;53.048;18.472;2023-12-20T15:07:48;5.78;84.25
79491;SHT31;73788;53.048;18.472;2023-12-20T15:10:15;5.78;84.22
79491;SHT31;73788;53.048;18.472;2023-12-20T15:12:45;5.79;84.23
79491;SHT31;73788;53.048;18.472;2023-12-20T15:15:12;5.78;84.21
79491;SHT31;73788;53.048;18.472;2023-12-20T15:17:40;5.81;84.23
79491;SHT31;73788;53.048;18.472;2023-12-20T15:20:07;5.82;84.21
79491;SHT31;73788;53.048;18.472;2023-12-20T15:22:36;5.84;84.21
79491;SHT31;73788;53.048;18.472;2023-12-20T15:25:04;5.85;84.21
79491;SHT31;73788;53.048;18.472;2023-12-20T15:27:34;5.87;84.20
79491;SHT31;73788;53.048;18.472;2023-12-20T15:30:05;5.89;84.20
79491;SHT31;73788;53.048;18.472;2023-12-20T15:32:35;5.88;84.20
79491;SHT31;73788;53.048;18.472;2023-12-20T15:35:03;5.89;84.20
79491;SHT31;73788;53.048;18.472;2023-12-20T15:37:31;5.90;84.20
79491;SHT31;73788;53.048;18.472;2023-12-20T15:39:58;5.88;84.20
79491;SHT31;73788;53.048;18.472;2023-12-20T15:42:25;5.89;84.20
79491;SHT31;73788;53.048;18.472;2023-12-20T15:44:52;5.89;84.20
79491;SHT31;73788;53.048;18.472;2023-12-20T15:47:19;5.88;84.20
79491;SHT31;73788;53.048;18.472;2023-12-20T15:49:46;5.87;84.20